Chris Hadfield Airport
CYZR : now visible

Airfield :











YOU CAN JOIN US ON...

 
LOGIN :

Register | Disclaimer

   EN    FR    IT 

 









Legend :    VFR   Marginal VFR   IFR   Intensive IFR   Very Intensive IFR
Visi :
Ceiling :
>= 8 km
>= 3000ft
5 to 8 km
1000 to 3000 ft
1500m to 5 km
500 to 1000 ft
800 to 1500m
200 to 500 ft
< 800m
< 200 ft
Symbols :   Thunderstorms  Fog  Heavy snow  Heavy precipitations  Wind > 20 kt






- Airport Elevation : 594 ft
- IATA code : YZR


CYZR - Chris Hadfield

CURRENT METAR :
  • 261704Z AUTO 02019KT 7SM -SN BKN008 OVC012 M01/M03 A2987 RMK SLP123

EXPIRED METARs :
  • 261657Z AUTO 03014G22KT 6SM -SN BKN008 OVC012 M01/M02 A2988 RMK SLP128
  • 261649Z AUTO 02018KT 5SM -SN SCT006 OVC012 M01/M02 A2987 RMK PRESFR SLP125
  • 261636Z AUTO 02014G20KT 3SM -SN SCT008 OVC012 M01/M02 A2990 RMK SLP133
  • 261626Z AUTO 02016KT 3SM -SN BKN008 BKN014 OVC034 M01/M02 A2990 RMK SLP133
  • 261600Z AUTO 02016KT 2 1/4SM -SN BKN006 BKN025 OVC034 M01/M02 A2990 RMK SLP133
  • 261556Z AUTO 02016KT 2SM -SN BKN006 BKN023 OVC034 M01/M02 A2990 RMK SLP135
  • 261526Z AUTO 02015KT 1 1/2SM -SN BKN006 OVC015 M01/M02 A2992 RMK SLP140
  • 261516Z AUTO 02014KT 1SM -SN SCT004 OVC013 M01/M02 A2993 RMK SLP143
  • 261446Z AUTO 02013KT 5/8SM -SN SCT006 OVC013 M01/M02 A2993 RMK SLP145

TAF AMD TAF CYZR
Valid from the 26 at 15:00 until the 27 at 02:00 UTC


261504Z 2615/2702 02015G25KT 3/4SM -SN BKN006 OVC012
TEMPO 2615/2701 3SM -SN FEW006 OVC012
FM270100 36015G25KT 2SM -SN BKN009 OVC015 RMK FCST BASED ON AUTO OBS. NXT FCST BY 262000Z



MET'MAP, your aeronautical weather chart ! - Copyright ORBIFLY December 2007 - Disclaimer

ORBIFLY MET'MAP TEAM :

Programming & Development : Alexandra Zaïnal
Concept & original design : Baudouin d'Aumeries
Assistance for programming : Marc-Olivier Méhu
Technical & hardware support : Manuel Goepfert

Contact : metmap@orbifly.com




SOURCES & CREDITS :

   NOAA       Earth
Advisory